sensor_id;sensor_type;location;lat;lon;timestamp;P1;durP1;ratioP1;P2;durP2;ratioP2
59468;SDS011;45277;52.768;18.262;2023-07-13T00:01:23;15.93;;;11.60;;
59468;SDS011;45277;52.768;18.262;2023-07-13T00:02:54;17.38;;;11.57;;
59468;SDS011;45277;52.768;18.262;2023-07-13T00:04:25;15.70;;;11.70;;
59468;SDS011;45277;52.768;18.262;2023-07-13T00:05:57;15.82;;;11.93;;
59468;SDS011;45277;52.768;18.262;2023-07-13T00:07:30;15.23;;;12.15;;
59468;SDS011;45277;52.768;18.262;2023-07-13T00:09:01;17.13;;;12.48;;
59468;SDS011;45277;52.768;18.262;2023-07-13T00:10:33;15.43;;;11.70;;
59468;SDS011;45277;52.768;18.262;2023-07-13T00:12:05;18.20;;;12.35;;
59468;SDS011;45277;52.768;18.262;2023-07-13T00:13:51;20.17;;;12.30;;
59468;SDS011;45277;52.768;18.262;2023-07-13T00:15:24;14.65;;;12.75;;
59468;SDS011;45277;52.768;18.262;2023-07-13T00:16:57;16.73;;;11.57;;
59468;SDS011;45277;52.768;18.262;2023-07-13T00:18:30;19.92;;;12.65;;
59468;SDS011;45277;52.768;18.262;2023-07-13T00:20:02;15.52;;;11.50;;
59468;SDS011;45277;52.768;18.262;2023-07-13T00:21:34;15.57;;;11.43;;
59468;SDS011;45277;52.768;18.262;2023-07-13T00:23:06;17.02;;;11.70;;
59468;SDS011;45277;52.768;18.262;2023-07-13T00:24:37;15.32;;;11.60;;
59468;SDS011;45277;52.768;18.262;2023-07-13T00:26:12;14.07;;;10.73;;
59468;SDS011;45277;52.768;18.262;2023-07-13T00:27:44;17.60;;;11.27;;
59468;SDS011;45277;52.768;18.262;2023-07-13T00:29:15;16.25;;;10.85;;
59468;SDS011;45277;52.768;18.262;2023-07-13T00:30:47;17.90;;;10.27;;
59468;SDS011;45277;52.768;18.262;2023-07-13T00:32:18;13.32;;;10.07;;
59468;SDS011;45277;52.768;18.262;2023-07-13T00:33:50;14.43;;;9.82;;
59468;SDS011;45277;52.768;18.262;2023-07-13T00:35:22;14.13;;;10.18;;
59468;SDS011;45277;52.768;18.262;2023-07-13T00:36:53;13.05;;;9.80;;
59468;SDS011;45277;52.768;18.262;2023-07-13T00:38:24;11.73;;;9.70;;
59468;SDS011;45277;52.768;18.262;2023-07-13T00:39:56;11.85;;;10.13;;
59468;SDS011;45277;52.768;18.262;2023-07-13T00:41:28;11.68;;;9.55;;
59468;SDS011;45277;52.768;18.262;2023-07-13T00:42:59;14.07;;;10.85;;
59468;SDS011;45277;52.768;18.262;2023-07-13T00:44:30;12.45;;;9.93;;
59468;SDS011;45277;52.768;18.262;2023-07-13T00:46:13;10.77;;;9.30;;
59468;SDS011;45277;52.768;18.262;2023-07-13T00:47:53;14.68;;;9.65;;
59468;SDS011;45277;52.768;18.262;2023-07-13T00:49:26;15.20;;;10.02;;
59468;SDS011;45277;52.768;18.262;2023-07-13T00:51:01;13.75;;;10.05;;
59468;SDS011;45277;52.768;18.262;2023-07-13T00:52:33;11.75;;;9.80;;
59468;SDS011;45277;52.768;18.262;2023-07-13T00:54:09;15.18;;;10.40;;
59468;SDS011;45277;52.768;18.262;2023-07-13T00:55:45;12.20;;;10.18;;
59468;SDS011;45277;52.768;18.262;2023-07-13T00:57:18;11.88;;;10.07;;
59468;SDS011;45277;52.768;18.262;2023-07-13T00:58:52;15.75;;;10.45;;
59468;SDS011;45277;52.768;18.262;2023-07-13T01:00:24;14.43;;;11.02;;
59468;SDS011;45277;52.768;18.262;2023-07-13T01:01:57;15.55;;;10.98;;
59468;SDS011;45277;52.768;18.262;2023-07-13T01:03:28;15.70;;;11.15;;
59468;SDS011;45277;52.768;18.262;2023-07-13T01:05:00;19.65;;;12.65;;
59468;SDS011;45277;52.768;18.262;2023-07-13T01:06:32;14.68;;;11.05;;
59468;SDS011;45277;52.768;18.262;2023-07-13T01:08:04;15.45;;;12.02;;
59468;SDS011;45277;52.768;18.262;2023-07-13T01:09:36;14.43;;;10.95;;
59468;SDS011;45277;52.768;18.262;2023-07-13T01:11:07;14.43;;;11.40;;
59468;SDS011;45277;52.768;18.262;2023-07-13T01:12:39;13.80;;;10.52;;
59468;SDS011;45277;52.768;18.262;2023-07-13T01:14:10;17.02;;;11.18;;
59468;SDS011;45277;52.768;18.262;2023-07-13T01:15:43;13.65;;;10.40;;
59468;SDS011;45277;52.768;18.262;2023-07-13T01:17:16;15.68;;;10.90;;
59468;SDS011;45277;52.768;18.262;2023-07-13T01:18:47;16.02;;;10.63;;
59468;SDS011;45277;52.768;18.262;2023-07-13T01:20:19;13.63;;;9.95;;
59468;SDS011;45277;52.768;18.262;2023-07-13T01:21:51;13.55;;;10.85;;
59468;SDS011;45277;52.768;18.262;2023-07-13T01:23:23;14.18;;;10.10;;
59468;SDS011;45277;52.768;18.262;2023-07-13T01:24:56;13.63;;;10.18;;
59468;SDS011;45277;52.768;18.262;2023-07-13T01:26:28;15.10;;;10.48;;
59468;SDS011;45277;52.768;18.262;2023-07-13T01:27:59;13.52;;;10.73;;
59468;SDS011;45277;52.768;18.262;2023-07-13T01:29:30;16.30;;;10.45;;
59468;SDS011;45277;52.768;18.262;2023-07-13T01:31:03;14.30;;;10.40;;
59468;SDS011;45277;52.768;18.262;2023-07-13T01:32:37;14.45;;;10.45;;
59468;SDS011;45277;52.768;18.262;2023-07-13T01:34:12;11.75;;;10.23;;
59468;SDS011;45277;52.768;18.262;2023-07-13T01:35:44;13.13;;;9.90;;
59468;SDS011;45277;52.768;18.262;2023-07-13T01:37:16;13.00;;;9.85;;
59468;SDS011;45277;52.768;18.262;2023-07-13T01:38:47;13.90;;;10.05;;
59468;SDS011;45277;52.768;18.262;2023-07-13T01:40:19;15.85;;;9.65;;
59468;SDS011;45277;52.768;18.262;2023-07-13T01:41:51;13.68;;;10.07;;
59468;SDS011;45277;52.768;18.262;2023-07-13T01:43:22;11.93;;;9.50;;
59468;SDS011;45277;52.768;18.262;2023-07-13T01:44:54;12.60;;;9.07;;
59468;SDS011;45277;52.768;18.262;2023-07-13T01:46:25;11.60;;;9.20;;
59468;SDS011;45277;52.768;18.262;2023-07-13T01:47:56;12.02;;;9.43;;
59468;SDS011;45277;52.768;18.262;2023-07-13T01:49:28;12.43;;;9.70;;
59468;SDS011;45277;52.768;18.262;2023-07-13T01:51:00;11.43;;;9.05;;
59468;SDS011;45277;52.768;18.262;2023-07-13T01:52:31;11.07;;;9.48;;
59468;SDS011;45277;52.768;18.262;2023-07-13T01:54:02;12.27;;;8.85;;
59468;SDS011;45277;52.768;18.262;2023-07-13T01:55:34;12.75;;;8.43;;
59468;SDS011;45277;52.768;18.262;2023-07-13T01:57:06;10.98;;;8.43;;
59468;SDS011;45277;52.768;18.262;2023-07-13T01:58:38;9.70;;;8.43;;
59468;SDS011;45277;52.768;18.262;2023-07-13T02:00:09;12.85;;;9.60;;
59468;SDS011;45277;52.768;18.262;2023-07-13T02:01:41;12.77;;;8.55;;
59468;SDS011;45277;52.768;18.262;2023-07-13T02:03:13;12.20;;;8.80;;
59468;SDS011;45277;52.768;18.262;2023-07-13T02:04:48;12.98;;;8.43;;
59468;SDS011;45277;52.768;18.262;2023-07-13T02:06:19;15.60;;;8.57;;
59468;SDS011;45277;52.768;18.262;2023-07-13T02:07:51;11.32;;;8.95;;
59468;SDS011;45277;52.768;18.262;2023-07-13T02:09:23;12.43;;;8.98;;
59468;SDS011;45277;52.768;18.262;2023-07-13T02:10:54;13.25;;;9.00;;
59468;SDS011;45277;52.768;18.262;2023-07-13T02:12:26;14.57;;;8.93;;
59468;SDS011;45277;52.768;18.262;2023-07-13T02:13:57;12.52;;;8.85;;
59468;SDS011;45277;52.768;18.262;2023-07-13T02:15:34;10.13;;;8.55;;
59468;SDS011;45277;52.768;18.262;2023-07-13T02:17:10;11.98;;;8.93;;
59468;SDS011;45277;52.768;18.262;2023-07-13T02:18:42;11.65;;;8.60;;
59468;SDS011;45277;52.768;18.262;2023-07-13T02:20:13;14.07;;;9.18;;
59468;SDS011;45277;52.768;18.262;2023-07-13T02:21:45;10.43;;;8.27;;
59468;SDS011;45277;52.768;18.262;2023-07-13T02:23:16;11.07;;;8.65;;
59468;SDS011;45277;52.768;18.262;2023-07-13T02:24:48;12.93;;;8.63;;
59468;SDS011;45277;52.768;18.262;2023-07-13T02:26:20;11.75;;;8.27;;
59468;SDS011;45277;52.768;18.262;2023-07-13T02:27:51;12.57;;;9.38;;
59468;SDS011;45277;52.768;18.262;2023-07-13T02:29:23;11.02;;;8.40;;
59468;SDS011;45277;52.768;18.262;2023-07-13T02:30:54;10.10;;;8.00;;
59468;SDS011;45277;52.768;18.262;2023-07-13T02:32:26;14.07;;;7.82;;
59468;SDS011;45277;52.768;18.262;2023-07-13T02:33:57;9.90;;;8.43;;
59468;SDS011;45277;52.768;18.262;2023-07-13T02:35:29;9.13;;;8.23;;
59468;SDS011;45277;52.768;18.262;2023-07-13T02:37:00;12.00;;;8.65;;
59468;SDS011;45277;52.768;18.262;2023-07-13T02:38:34;11.07;;;8.45;;
59468;SDS011;45277;52.768;18.262;2023-07-13T02:40:07;12.02;;;8.60;;
59468;SDS011;45277;52.768;18.262;2023-07-13T02:41:39;10.70;;;8.43;;
59468;SDS011;45277;52.768;18.262;2023-07-13T02:43:12;13.05;;;8.40;;
59468;SDS011;45277;52.768;18.262;2023-07-13T02:44:43;14.02;;;8.40;;
59468;SDS011;45277;52.768;18.262;2023-07-13T02:46:15;11.68;;;8.82;;
59468;SDS011;45277;52.768;18.262;2023-07-13T02:47:46;13.65;;;8.75;;
59468;SDS011;45277;52.768;18.262;2023-07-13T02:49:17;12.13;;;8.43;;
59468;SDS011;45277;52.768;18.262;2023-07-13T02:50:49;12.35;;;8.93;;
59468;SDS011;45277;52.768;18.262;2023-07-13T02:52:20;10.77;;;8.07;;
59468;SDS011;45277;52.768;18.262;2023-07-13T02:53:51;13.73;;;8.93;;
59468;SDS011;45277;52.768;18.262;2023-07-13T02:55:23;12.00;;;8.35;;
59468;SDS011;45277;52.768;18.262;2023-07-13T02:56:54;11.40;;;8.50;;
59468;SDS011;45277;52.768;18.262;2023-07-13T02:58:26;13.10;;;9.20;;
59468;SDS011;45277;52.768;18.262;2023-07-13T02:59:57;10.23;;;7.85;;
59468;SDS011;45277;52.768;18.262;2023-07-13T03:01:28;11.85;;;8.50;;
59468;SDS011;45277;52.768;18.262;2023-07-13T03:03:00;11.55;;;8.15;;
59468;SDS011;45277;52.768;18.262;2023-07-13T03:04:31;10.45;;;7.30;;
59468;SDS011;45277;52.768;18.262;2023-07-13T03:06:03;18.75;;;8.95;;
59468;SDS011;45277;52.768;18.262;2023-07-13T03:07:38;13.32;;;8.90;;
59468;SDS011;45277;52.768;18.262;2023-07-13T03:09:10;10.07;;;7.95;;
59468;SDS011;45277;52.768;18.262;2023-07-13T03:10:43;11.40;;;8.70;;
59468;SDS011;45277;52.768;18.262;2023-07-13T03:12:14;12.07;;;8.77;;
59468;SDS011;45277;52.768;18.262;2023-07-13T03:13:46;11.20;;;8.18;;
59468;SDS011;45277;52.768;18.262;2023-07-13T03:15:17;11.48;;;7.82;;
59468;SDS011;45277;52.768;18.262;2023-07-13T03:16:49;9.77;;;8.25;;
59468;SDS011;45277;52.768;18.262;2023-07-13T03:18:20;9.85;;;8.10;;
59468;SDS011;45277;52.768;18.262;2023-07-13T03:19:51;12.77;;;8.32;;
59468;SDS011;45277;52.768;18.262;2023-07-13T03:21:23;11.23;;;8.27;;
59468;SDS011;45277;52.768;18.262;2023-07-13T03:22:55;11.48;;;8.02;;
59468;SDS011;45277;52.768;18.262;2023-07-13T03:24:26;12.40;;;8.20;;
59468;SDS011;45277;52.768;18.262;2023-07-13T03:26:04;10.25;;;7.57;;
59468;SDS011;45277;52.768;18.262;2023-07-13T03:27:36;11.27;;;8.15;;
59468;SDS011;45277;52.768;18.262;2023-07-13T03:29:08;12.10;;;8.25;;
59468;SDS011;45277;52.768;18.262;2023-07-13T03:30:39;9.88;;;8.07;;
59468;SDS011;45277;52.768;18.262;2023-07-13T03:32:11;10.90;;;8.63;;
59468;SDS011;45277;52.768;18.262;2023-07-13T03:33:43;12.05;;;8.18;;
59468;SDS011;45277;52.768;18.262;2023-07-13T03:35:15;10.88;;;7.82;;
59468;SDS011;45277;52.768;18.262;2023-07-13T03:36:46;11.90;;;8.15;;
59468;SDS011;45277;52.768;18.262;2023-07-13T03:38:17;10.73;;;8.00;;
59468;SDS011;45277;52.768;18.262;2023-07-13T03:39:50;10.98;;;7.95;;
59468;SDS011;45277;52.768;18.262;2023-07-13T03:41:21;11.75;;;7.20;;
59468;SDS011;45277;52.768;18.262;2023-07-13T03:42:53;10.48;;;7.70;;
59468;SDS011;45277;52.768;18.262;2023-07-13T03:44:25;11.00;;;8.27;;
59468;SDS011;45277;52.768;18.262;2023-07-13T03:45:56;12.88;;;7.97;;
59468;SDS011;45277;52.768;18.262;2023-07-13T03:47:27;10.43;;;8.15;;
59468;SDS011;45277;52.768;18.262;2023-07-13T03:48:59;12.48;;;8.68;;
59468;SDS011;45277;52.768;18.262;2023-07-13T03:50:30;12.55;;;8.68;;
59468;SDS011;45277;52.768;18.262;2023-07-13T03:52:02;11.77;;;8.23;;
59468;SDS011;45277;52.768;18.262;2023-07-13T03:53:37;11.30;;;7.75;;
59468;SDS011;45277;52.768;18.262;2023-07-13T03:55:09;13.43;;;8.35;;
59468;SDS011;45277;52.768;18.262;2023-07-13T03:56:40;9.32;;;7.28;;
59468;SDS011;45277;52.768;18.262;2023-07-13T03:58:26;12.07;;;7.97;;
59468;SDS011;45277;52.768;18.262;2023-07-13T04:00:08;9.82;;;7.45;;
59468;SDS011;45277;52.768;18.262;2023-07-13T04:01:41;11.98;;;7.18;;
59468;SDS011;45277;52.768;18.262;2023-07-13T04:03:14;12.27;;;8.05;;
59468;SDS011;45277;52.768;18.262;2023-07-13T04:04:45;11.65;;;7.30;;
59468;SDS011;45277;52.768;18.262;2023-07-13T04:06:27;11.00;;;7.93;;
59468;SDS011;45277;52.768;18.262;2023-07-13T04:08:00;13.50;;;7.75;;
59468;SDS011;45277;52.768;18.262;2023-07-13T04:09:31;11.32;;;8.23;;
59468;SDS011;45277;52.768;18.262;2023-07-13T04:11:03;10.70;;;7.90;;
59468;SDS011;45277;52.768;18.262;2023-07-13T04:12:35;14.75;;;8.35;;
59468;SDS011;45277;52.768;18.262;2023-07-13T04:14:06;10.40;;;7.80;;
59468;SDS011;45277;52.768;18.262;2023-07-13T04:15:38;10.88;;;7.95;;
59468;SDS011;45277;52.768;18.262;2023-07-13T04:17:10;10.25;;;7.97;;
59468;SDS011;45277;52.768;18.262;2023-07-13T04:18:42;11.98;;;7.95;;
59468;SDS011;45277;52.768;18.262;2023-07-13T04:20:14;12.50;;;7.72;;
59468;SDS011;45277;52.768;18.262;2023-07-13T04:21:45;11.70;;;7.57;;
59468;SDS011;45277;52.768;18.262;2023-07-13T04:23:17;10.90;;;7.05;;
59468;SDS011;45277;52.768;18.262;2023-07-13T04:24:48;10.27;;;7.03;;
59468;SDS011;45277;52.768;18.262;2023-07-13T04:26:20;10.73;;;6.82;;
59468;SDS011;45277;52.768;18.262;2023-07-13T04:27:53;11.20;;;6.78;;
59468;SDS011;45277;52.768;18.262;2023-07-13T04:29:24;10.20;;;7.20;;
59468;SDS011;45277;52.768;18.262;2023-07-13T04:30:56;9.73;;;6.25;;
59468;SDS011;45277;52.768;18.262;2023-07-13T04:32:27;8.98;;;6.13;;
59468;SDS011;45277;52.768;18.262;2023-07-13T04:33:58;9.52;;;6.35;;
59468;SDS011;45277;52.768;18.262;2023-07-13T04:35:30;12.32;;;6.45;;
59468;SDS011;45277;52.768;18.262;2023-07-13T04:37:02;7.78;;;5.47;;
59468;SDS011;45277;52.768;18.262;2023-07-13T04:38:35;8.70;;;6.45;;
59468;SDS011;45277;52.768;18.262;2023-07-13T04:40:07;8.02;;;5.57;;
59468;SDS011;45277;52.768;18.262;2023-07-13T04:41:42;9.15;;;5.75;;
59468;SDS011;45277;52.768;18.262;2023-07-13T04:43:13;7.57;;;6.10;;
59468;SDS011;45277;52.768;18.262;2023-07-13T04:44:48;9.85;;;5.93;;
59468;SDS011;45277;52.768;18.262;2023-07-13T04:46:20;9.63;;;6.63;;
59468;SDS011;45277;52.768;18.262;2023-07-13T04:47:51;12.50;;;6.43;;
59468;SDS011;45277;52.768;18.262;2023-07-13T04:49:23;12.38;;;7.43;;
59468;SDS011;45277;52.768;18.262;2023-07-13T04:50:55;9.35;;;6.60;;
59468;SDS011;45277;52.768;18.262;2023-07-13T04:52:27;8.38;;;6.13;;
59468;SDS011;45277;52.768;18.262;2023-07-13T04:53:59;11.60;;;5.85;;
59468;SDS011;45277;52.768;18.262;2023-07-13T04:55:30;9.27;;;5.80;;
59468;SDS011;45277;52.768;18.262;2023-07-13T04:57:02;8.50;;;6.28;;
59468;SDS011;45277;52.768;18.262;2023-07-13T04:58:35;8.50;;;5.63;;
59468;SDS011;45277;52.768;18.262;2023-07-13T05:00:06;9.50;;;6.53;;
59468;SDS011;45277;52.768;18.262;2023-07-13T05:01:38;6.93;;;5.78;;
59468;SDS011;45277;52.768;18.262;2023-07-13T05:03:11;9.70;;;5.88;;
59468;SDS011;45277;52.768;18.262;2023-07-13T05:04:43;9.07;;;5.97;;
59468;SDS011;45277;52.768;18.262;2023-07-13T05:06:18;10.35;;;6.05;;
59468;SDS011;45277;52.768;18.262;2023-07-13T05:07:49;8.27;;;5.78;;
59468;SDS011;45277;52.768;18.262;2023-07-13T05:09:21;9.48;;;6.40;;
59468;SDS011;45277;52.768;18.262;2023-07-13T05:10:52;10.30;;;5.97;;
59468;SDS011;45277;52.768;18.262;2023-07-13T05:12:24;7.60;;;5.85;;
59468;SDS011;45277;52.768;18.262;2023-07-13T05:13:56;9.10;;;5.95;;
59468;SDS011;45277;52.768;18.262;2023-07-13T05:15:27;9.55;;;5.90;;
59468;SDS011;45277;52.768;18.262;2023-07-13T05:16:59;8.73;;;5.72;;
59468;SDS011;45277;52.768;18.262;2023-07-13T05:18:30;6.32;;;5.45;;
59468;SDS011;45277;52.768;18.262;2023-07-13T05:20:02;8.48;;;5.55;;
59468;SDS011;45277;52.768;18.262;2023-07-13T05:21:34;7.35;;;5.32;;
59468;SDS011;45277;52.768;18.262;2023-07-13T05:23:05;10.93;;;5.70;;
59468;SDS011;45277;52.768;18.262;2023-07-13T05:24:36;8.48;;;6.13;;
59468;SDS011;45277;52.768;18.262;2023-07-13T05:26:08;9.55;;;5.85;;
59468;SDS011;45277;52.768;18.262;2023-07-13T05:27:40;7.07;;;5.80;;
59468;SDS011;45277;52.768;18.262;2023-07-13T05:29:12;8.40;;;5.65;;
59468;SDS011;45277;52.768;18.262;2023-07-13T05:30:46;10.27;;;5.93;;
59468;SDS011;45277;52.768;18.262;2023-07-13T05:32:19;8.13;;;6.03;;
59468;SDS011;45277;52.768;18.262;2023-07-13T05:33:50;8.80;;;5.97;;
59468;SDS011;45277;52.768;18.262;2023-07-13T05:35:22;7.65;;;6.10;;
59468;SDS011;45277;52.768;18.262;2023-07-13T05:36:53;8.00;;;5.90;;
59468;SDS011;45277;52.768;18.262;2023-07-13T05:38:24;9.73;;;5.95;;
59468;SDS011;45277;52.768;18.262;2023-07-13T05:39:56;10.18;;;5.65;;
59468;SDS011;45277;52.768;18.262;2023-07-13T05:41:27;8.93;;;5.90;;
59468;SDS011;45277;52.768;18.262;2023-07-13T05:42:59;13.38;;;6.45;;
59468;SDS011;45277;52.768;18.262;2023-07-13T05:44:30;8.90;;;6.25;;
59468;SDS011;45277;52.768;18.262;2023-07-13T05:46:02;10.45;;;6.05;;
59468;SDS011;45277;52.768;18.262;2023-07-13T05:47:33;9.02;;;5.75;;
59468;SDS011;45277;52.768;18.262;2023-07-13T05:49:05;9.07;;;6.57;;
59468;SDS011;45277;52.768;18.262;2023-07-13T05:50:37;10.43;;;6.13;;
59468;SDS011;45277;52.768;18.262;2023-07-13T05:52:08;8.77;;;6.43;;
59468;SDS011;45277;52.768;18.262;2023-07-13T05:53:40;10.32;;;6.90;;
59468;SDS011;45277;52.768;18.262;2023-07-13T05:55:11;10.45;;;6.85;;
59468;SDS011;45277;52.768;18.262;2023-07-13T05:56:43;8.25;;;6.07;;
59468;SDS011;45277;52.768;18.262;2023-07-13T05:58:14;9.30;;;6.32;;
59468;SDS011;45277;52.768;18.262;2023-07-13T05:59:46;10.73;;;6.80;;
59468;SDS011;45277;52.768;18.262;2023-07-13T06:01:18;9.30;;;7.30;;
59468;SDS011;45277;52.768;18.262;2023-07-13T06:02:51;10.65;;;7.00;;
59468;SDS011;45277;52.768;18.262;2023-07-13T06:04:22;9.98;;;6.88;;
59468;SDS011;45277;52.768;18.262;2023-07-13T06:05:53;10.85;;;6.45;;
59468;SDS011;45277;52.768;18.262;2023-07-13T06:07:25;8.82;;;6.28;;
59468;SDS011;45277;52.768;18.262;2023-07-13T06:08:56;11.73;;;7.10;;
59468;SDS011;45277;52.768;18.262;2023-07-13T06:10:28;11.02;;;7.05;;
59468;SDS011;45277;52.768;18.262;2023-07-13T06:11:59;15.98;;;7.13;;
59468;SDS011;45277;52.768;18.262;2023-07-13T06:13:31;8.13;;;7.00;;
59468;SDS011;45277;52.768;18.262;2023-07-13T06:15:02;9.38;;;6.60;;
59468;SDS011;45277;52.768;18.262;2023-07-13T06:16:35;10.93;;;7.20;;
59468;SDS011;45277;52.768;18.262;2023-07-13T06:18:06;8.40;;;6.53;;
59468;SDS011;45277;52.768;18.262;2023-07-13T06:19:38;15.00;;;7.97;;
59468;SDS011;45277;52.768;18.262;2023-07-13T06:21:11;7.97;;;6.75;;
59468;SDS011;45277;52.768;18.262;2023-07-13T06:22:44;8.25;;;6.40;;
59468;SDS011;45277;52.768;18.262;2023-07-13T06:24:15;10.00;;;6.40;;
59468;SDS011;45277;52.768;18.262;2023-07-13T06:25:47;8.55;;;6.05;;
59468;SDS011;45277;52.768;18.262;2023-07-13T06:27:18;11.27;;;6.63;;
59468;SDS011;45277;52.768;18.262;2023-07-13T06:28:49;9.88;;;5.95;;
59468;SDS011;45277;52.768;18.262;2023-07-13T06:30:21;8.85;;;7.10;;
59468;SDS011;45277;52.768;18.262;2023-07-13T06:31:52;11.43;;;7.00;;
59468;SDS011;45277;52.768;18.262;2023-07-13T06:33:24;12.30;;;6.97;;
59468;SDS011;45277;52.768;18.262;2023-07-13T06:34:55;11.90;;;6.88;;
59468;SDS011;45277;52.768;18.262;2023-07-13T06:36:27;13.77;;;7.28;;
59468;SDS011;45277;52.768;18.262;2023-07-13T06:37:59;13.68;;;6.85;;
59468;SDS011;45277;52.768;18.262;2023-07-13T06:39:32;14.75;;;6.70;;
59468;SDS011;45277;52.768;18.262;2023-07-13T06:41:04;11.18;;;6.30;;
59468;SDS011;45277;52.768;18.262;2023-07-13T06:42:36;8.55;;;5.90;;
59468;SDS011;45277;52.768;18.262;2023-07-13T06:44:09;9.50;;;6.65;;
59468;SDS011;45277;52.768;18.262;2023-07-13T06:45:45;7.72;;;4.95;;
59468;SDS011;45277;52.768;18.262;2023-07-13T06:47:19;9.63;;;5.32;;
59468;SDS011;45277;52.768;18.262;2023-07-13T06:48:51;8.77;;;5.53;;
59468;SDS011;45277;52.768;18.262;2023-07-13T06:50:22;6.85;;;5.43;;
59468;SDS011;45277;52.768;18.262;2023-07-13T06:51:54;8.63;;;4.68;;
59468;SDS011;45277;52.768;18.262;2023-07-13T06:53:26;12.23;;;5.03;;
59468;SDS011;45277;52.768;18.262;2023-07-13T06:54:57;7.93;;;4.43;;
59468;SDS011;45277;52.768;18.262;2023-07-13T06:56:28;6.15;;;4.78;;
59468;SDS011;45277;52.768;18.262;2023-07-13T06:58:00;8.88;;;4.80;;
59468;SDS011;45277;52.768;18.262;2023-07-13T06:59:32;9.57;;;4.35;;
59468;SDS011;45277;52.768;18.262;2023-07-13T07:01:04;5.45;;;4.35;;
59468;SDS011;45277;52.768;18.262;2023-07-13T07:02:36;9.77;;;5.55;;
59468;SDS011;45277;52.768;18.262;2023-07-13T07:04:08;7.20;;;4.45;;
59468;SDS011;45277;52.768;18.262;2023-07-13T07:05:39;6.20;;;4.32;;
59468;SDS011;45277;52.768;18.262;2023-07-13T07:07:11;6.45;;;4.55;;
59468;SDS011;45277;52.768;18.262;2023-07-13T07:08:42;5.47;;;4.40;;
59468;SDS011;45277;52.768;18.262;2023-07-13T07:10:14;11.55;;;4.30;;
59468;SDS011;45277;52.768;18.262;2023-07-13T07:11:46;8.90;;;4.32;;
59468;SDS011;45277;52.768;18.262;2023-07-13T07:13:19;5.95;;;3.67;;
59468;SDS011;45277;52.768;18.262;2023-07-13T07:14:52;5.15;;;3.72;;
59468;SDS011;45277;52.768;18.262;2023-07-13T07:16:24;8.95;;;4.10;;
59468;SDS011;45277;52.768;18.262;2023-07-13T07:17:56;8.05;;;4.47;;
59468;SDS011;45277;52.768;18.262;2023-07-13T07:19:30;9.30;;;4.13;;
59468;SDS011;45277;52.768;18.262;2023-07-13T07:21:02;5.40;;;3.90;;
59468;SDS011;45277;52.768;18.262;2023-07-13T07:22:35;7.22;;;3.83;;
59468;SDS011;45277;52.768;18.262;2023-07-13T07:24:06;6.00;;;4.00;;
59468;SDS011;45277;52.768;18.262;2023-07-13T07:25:38;5.20;;;3.70;;
59468;SDS011;45277;52.768;18.262;2023-07-13T07:27:12;7.18;;;3.63;;
59468;SDS011;45277;52.768;18.262;2023-07-13T07:28:46;7.38;;;4.43;;
59468;SDS011;45277;52.768;18.262;2023-07-13T07:30:18;8.02;;;4.20;;
59468;SDS011;45277;52.768;18.262;2023-07-13T07:31:49;5.70;;;3.83;;
59468;SDS011;45277;52.768;18.262;2023-07-13T07:33:20;4.82;;;3.95;;
59468;SDS011;45277;52.768;18.262;2023-07-13T07:34:52;8.43;;;4.25;;
59468;SDS011;45277;52.768;18.262;2023-07-13T07:36:24;6.68;;;4.30;;
59468;SDS011;45277;52.768;18.262;2023-07-13T07:37:55;5.85;;;3.60;;
59468;SDS011;45277;52.768;18.262;2023-07-13T07:39:27;5.57;;;3.80;;
59468;SDS011;45277;52.768;18.262;2023-07-13T07:40:58;7.97;;;3.90;;
59468;SDS011;45277;52.768;18.262;2023-07-13T07:42:33;6.78;;;4.47;;
59468;SDS011;45277;52.768;18.262;2023-07-13T07:44:05;8.98;;;4.03;;
59468;SDS011;45277;52.768;18.262;2023-07-13T07:45:40;5.93;;;4.00;;
59468;SDS011;45277;52.768;18.262;2023-07-13T07:47:11;8.55;;;4.03;;
59468;SDS011;45277;52.768;18.262;2023-07-13T07:48:43;5.18;;;3.78;;
59468;SDS011;45277;52.768;18.262;2023-07-13T07:50:14;8.07;;;4.50;;
59468;SDS011;45277;52.768;18.262;2023-07-13T07:51:45;7.13;;;4.10;;
59468;SDS011;45277;52.768;18.262;2023-07-13T07:53:17;7.00;;;3.90;;
59468;SDS011;45277;52.768;18.262;2023-07-13T07:54:49;5.15;;;3.92;;
59468;SDS011;45277;52.768;18.262;2023-07-13T07:56:20;8.43;;;4.60;;
59468;SDS011;45277;52.768;18.262;2023-07-13T07:57:52;19.42;;;4.28;;
59468;SDS011;45277;52.768;18.262;2023-07-13T07:59:24;8.88;;;4.30;;
59468;SDS011;45277;52.768;18.262;2023-07-13T08:01:06;6.80;;;4.28;;
59468;SDS011;45277;52.768;18.262;2023-07-13T08:02:38;8.63;;;4.03;;
59468;SDS011;45277;52.768;18.262;2023-07-13T08:04:12;4.28;;;3.33;;
59468;SDS011;45277;52.768;18.262;2023-07-13T08:05:43;6.43;;;3.45;;
59468;SDS011;45277;52.768;18.262;2023-07-13T08:07:15;4.93;;;3.38;;
59468;SDS011;45277;52.768;18.262;2023-07-13T08:08:47;6.43;;;3.47;;
59468;SDS011;45277;52.768;18.262;2023-07-13T08:10:19;5.93;;;2.95;;
59468;SDS011;45277;52.768;18.262;2023-07-13T08:11:51;7.00;;;3.97;;
59468;SDS011;45277;52.768;18.262;2023-07-13T08:13:22;7.82;;;3.78;;
59468;SDS011;45277;52.768;18.262;2023-07-13T08:14:54;4.22;;;3.40;;
59468;SDS011;45277;52.768;18.262;2023-07-13T08:16:28;5.57;;;3.38;;
59468;SDS011;45277;52.768;18.262;2023-07-13T08:18:00;5.07;;;3.28;;
59468;SDS011;45277;52.768;18.262;2023-07-13T08:19:34;4.95;;;3.33;;
59468;SDS011;45277;52.768;18.262;2023-07-13T08:21:06;7.22;;;3.92;;
59468;SDS011;45277;52.768;18.262;2023-07-13T08:22:39;7.50;;;3.80;;
59468;SDS011;45277;52.768;18.262;2023-07-13T08:24:10;5.07;;;3.70;;
59468;SDS011;45277;52.768;18.262;2023-07-13T08:25:42;6.38;;;3.88;;
59468;SDS011;45277;52.768;18.262;2023-07-13T08:27:21;5.85;;;3.63;;
59468;SDS011;45277;52.768;18.262;2023-07-13T08:28:53;6.10;;;3.60;;
59468;SDS011;45277;52.768;18.262;2023-07-13T08:30:25;6.35;;;3.85;;
59468;SDS011;45277;52.768;18.262;2023-07-13T08:31:57;5.15;;;3.72;;
59468;SDS011;45277;52.768;18.262;2023-07-13T08:33:29;5.72;;;4.40;;
59468;SDS011;45277;52.768;18.262;2023-07-13T08:35:01;8.05;;;3.50;;
59468;SDS011;45277;52.768;18.262;2023-07-13T08:36:32;6.38;;;3.45;;
59468;SDS011;45277;52.768;18.262;2023-07-13T08:38:03;3.80;;;3.20;;
59468;SDS011;45277;52.768;18.262;2023-07-13T08:39:35;6.63;;;3.60;;
59468;SDS011;45277;52.768;18.262;2023-07-13T08:41:15;8.23;;;3.30;;
59468;SDS011;45277;52.768;18.262;2023-07-13T08:42:55;7.68;;;3.40;;
59468;SDS011;45277;52.768;18.262;2023-07-13T08:46:37;4.78;;;3.10;;
59468;SDS011;45277;52.768;18.262;2023-07-13T08:48:17;5.85;;;3.80;;
59468;SDS011;45277;52.768;18.262;2023-07-13T08:49:50;6.75;;;3.38;;
59468;SDS011;45277;52.768;18.262;2023-07-13T08:53:01;11.57;;;4.22;;
59468;SDS011;45277;52.768;18.262;2023-07-13T08:54:36;6.90;;;3.83;;
59468;SDS011;45277;52.768;18.262;2023-07-13T08:56:12;5.35;;;3.15;;
59468;SDS011;45277;52.768;18.262;2023-07-13T08:58:02;6.90;;;3.70;;
59468;SDS011;45277;52.768;18.262;2023-07-13T08:59:40;4.88;;;3.58;;
59468;SDS011;45277;52.768;18.262;2023-07-13T09:02:53;6.38;;;3.17;;
59468;SDS011;45277;52.768;18.262;2023-07-13T09:04:36;5.60;;;3.28;;
59468;SDS011;45277;52.768;18.262;2023-07-13T09:06:13;7.70;;;3.35;;
59468;SDS011;45277;52.768;18.262;2023-07-13T09:09:34;5.95;;;2.92;;
59468;SDS011;45277;52.768;18.262;2023-07-13T09:15:02;5.75;;;3.25;;